Time;durP1;ratioP1;P1;durP2;ratioP2;P2;SDS_P1;SDS_P2;PMS_P1;PMS_P2;Temp;Humidity;BMP_temperature;BMP_pressure;BME280_temperature;BME280_humidity;BME280_pressure;Samples;Min_cycle;Max_cycle;Signal;HPM_P1;HPM_P2
2023/03/21 00:00:23;;;;;;;16.17;7.85;;;9.60;45.10;;;;;;5041380;28;20417;-63
2023/03/21 00:02:50;;;;;;;17.35;8.20;;;9.60;34.20;;;;;;5040382;28;20785;-62
2023/03/21 00:05:19;;;;;;;15.80;8.45;;;9.60;38.30;;;;;;5042501;28;20829;-63
2023/03/21 00:07:46;;;;;;;17.52;7.88;;;9.50;30.10;;;;;;5039820;28;20438;-64
2023/03/21 00:10:13;;;;;;;16.57;7.77;;;9.60;26.80;;;;;;5038881;28;20477;-62
2023/03/21 00:12:39;;;;;;;14.57;7.32;;;9.60;24.90;;;;;;5030447;28;20414;-63
2023/03/21 00:15:09;;;;;;;13.38;6.80;;;9.60;16.00;;;;;;5030447;28;20521;-63
2023/03/21 00:17:38;;;;;;;15.90;6.95;;;9.60;20.60;;;;;;5029824;28;21277;-63
2023/03/21 00:20:13;;;;;;;14.23;6.65;;;9.70;8.20;;;;;;5029941;28;20423;-63
2023/03/21 00:22:41;;;;;;;12.93;6.90;;;9.70;1.00;;;;;;5043257;28;20411;-63
2023/03/21 00:25:09;;;;;;;15.20;6.53;;;9.70;1.00;;;;;;5046474;28;20785;-63
2023/03/21 00:27:36;;;;;;;14.77;6.70;;;9.70;1.00;;;;;;5049186;28;20427;-63
2023/03/21 00:30:05;;;;;;;16.05;6.90;;;9.80;1.00;;;;;;5043641;28;20832;-63
2023/03/21 00:32:33;;;;;;;13.63;6.30;;;9.80;1.00;;;;;;5044857;28;20526;-63
2023/03/21 00:34:59;;;;;;;18.20;7.10;;;9.90;1.00;;;;;;5043305;28;20464;-62
2023/03/21 00:37:27;;;;;;;14.32;6.53;;;9.80;1.00;;;;;;5042208;28;20441;-63
2023/03/21 00:39:53;;;;;;;14.70;6.20;;;9.80;1.00;;;;;;5044194;28;20449;-63
2023/03/21 00:42:20;;;;;;;15.30;6.10;;;9.60;1.00;;;;;;5043790;28;20421;-63
2023/03/21 00:44:47;;;;;;;14.10;6.13;;;9.70;1.00;;;;;;5042381;28;20465;-63
2023/03/21 00:47:14;;;;;;;12.98;6.53;;;9.60;1.00;;;;;;5043006;28;20425;-63
2023/03/21 00:49:42;;;;;;;13.43;6.07;;;9.70;1.00;;;;;;5044558;28;20416;-63
2023/03/21 00:52:10;;;;;;;13.43;5.88;;;9.70;1.00;;;;;;5042492;28;20411;-63
2023/03/21 00:54:37;;;;;;;13.48;6.20;;;9.80;1.00;;;;;;5050184;28;20411;-63
2023/03/21 00:57:04;;;;;;;13.80;6.43;;;9.80;1.00;;;;;;5045499;28;20398;-63
2023/03/21 00:59:31;;;;;;;12.97;6.23;;;9.60;1.00;;;;;;5043834;28;20422;-63
2023/03/21 01:01:59;;;;;;;13.20;6.63;;;9.70;1.00;;;;;;5041855;28;20411;-62
2023/03/21 01:04:27;;;;;;;10.32;5.97;;;9.80;1.00;;;;;;5042988;28;20424;-63
2023/03/21 01:06:55;;;;;;;16.27;6.20;;;9.90;1.00;;;;;;5044257;28;20429;-63
2023/03/21 01:09:23;;;;;;;15.07;6.80;;;9.90;1.00;;;;;;5042349;28;20415;-63
2023/03/21 01:11:50;;;;;;;14.90;6.65;;;9.90;1.00;;;;;;5042115;28;20925;-62
2023/03/21 01:14:19;;;;;;;13.38;6.20;;;9.80;1.00;;;;;;5034305;28;20473;-63
2023/03/21 01:16:46;;;;;;;14.40;6.83;;;9.90;1.00;;;;;;5034731;28;20473;-63
2023/03/21 01:19:15;;;;;;;16.85;6.90;;;9.80;1.00;;;;;;5032472;28;20836;-63
2023/03/21 01:21:42;;;;;;;14.35;7.65;;;9.90;1.00;;;;;;5032381;28;20889;-63
2023/03/21 01:24:10;;;;;;;16.77;7.13;;;9.90;1.00;;;;;;5047038;28;20417;-63
2023/03/21 01:26:37;;;;;;;15.75;7.20;;;10.00;1.00;;;;;;5050417;28;20467;-63
2023/03/21 01:29:04;;;;;;;14.60;7.13;;;10.00;1.00;;;;;;5041450;28;20415;-63
2023/03/21 01:31:31;;;;;;;15.43;7.22;;;10.10;1.00;;;;;;5041262;28;20777;-63
2023/03/21 01:33:58;;;;;;;15.40;8.13;;;10.10;1.00;;;;;;5040842;28;20955;-63
2023/03/21 01:36:26;;;;;;;15.02;7.47;;;10.10;1.00;;;;;;5043567;28;20401;-63
2023/03/21 01:38:54;;;;;;;17.40;7.82;;;10.10;1.00;;;;;;5042353;28;20418;-63
2023/03/21 01:41:27;;;;;;;14.82;7.70;;;10.10;1.00;;;;;;5041060;28;20411;-62
2023/03/21 01:43:54;;;;;;;19.85;8.20;;;10.10;1.00;;;;;;5042339;28;20413;-64
2023/03/21 01:46:36;;;;;;;18.77;8.70;;;10.20;1.00;;;;;;5043031;28;20475;-63
2023/03/21 01:49:07;;;;;;;15.35;7.90;;;10.00;1.00;;;;;;5043392;28;20453;-63
2023/03/21 01:51:36;;;;;;;18.67;8.68;;;10.00;1.00;;;;;;5042203;28;20813;-63
2023/03/21 01:54:05;;;;;;;18.27;8.45;;;10.00;1.90;;;;;;5049677;28;20418;-63
2023/03/21 01:56:36;;;;;;;16.52;8.65;;;9.90;13.90;;;;;;5046811;28;20415;-63
2023/03/21 01:59:07;;;;;;;17.60;8.73;;;9.90;11.80;;;;;;5040599;28;20458;-63
2023/03/21 02:01:37;;;;;;;18.73;8.48;;;9.90;10.40;;;;;;5041845;28;20481;-63
2023/03/21 02:04:07;;;;;;;17.93;9.00;;;9.90;11.90;;;;;;5042819;28;20834;-63
2023/03/21 02:06:40;;;;;;;17.50;9.10;;;9.80;19.20;;;;;;5038855;28;20472;-63
2023/03/21 02:09:10;;;;;;;18.55;10.02;;;9.80;22.00;;;;;;5031897;28;20473;-63
2023/03/21 02:11:39;;;;;;;18.65;9.60;;;9.60;47.80;;;;;;5031750;28;21138;-63
2023/03/21 02:14:08;;;;;;;18.93;9.70;;;9.50;67.80;;;;;;5040495;28;20476;-63
2023/03/21 02:16:46;;;;;;;19.88;10.05;;;9.60;73.80;;;;;;5040898;28;20442;-63
2023/03/21 02:19:47;;;;;;;18.58;9.80;;;9.40;88.20;;;;;;5041556;28;20441;-64
2023/03/21 02:22:34;;;;;;;19.55;10.15;;;9.40;90.00;;;;;;5031294;28;20488;-63
2023/03/21 02:25:33;;;;;;;19.60;9.32;;;9.50;91.20;;;;;;5048836;28;20413;-63
2023/03/21 02:28:07;;;;;;;17.73;9.85;;;9.50;89.70;;;;;;5042521;28;20878;-63
2023/03/21 02:31:12;;;;;;;17.48;9.48;;;9.40;84.00;;;;;;5041309;28;20415;-63
2023/03/21 02:33:57;;;;;;;19.83;9.77;;;9.40;92.60;;;;;;5012809;28;20497;-63
2023/03/21 02:36:32;;;;;;;18.25;10.02;;;9.40;93.10;;;;;;5040580;28;20407;-63
2023/03/21 02:39:11;;;;;;;18.75;10.30;;;9.50;89.60;;;;;;5038812;28;20484;-63
2023/03/21 02:41:47;;;;;;;21.92;10.50;;;9.50;91.90;;;;;;5042338;28;20911;-63
2023/03/21 02:44:20;;;;;;;19.33;9.85;;;9.60;83.00;;;;;;5041471;28;20445;-63
2023/03/21 02:46:53;;;;;;;17.85;10.07;;;9.60;75.80;;;;;;5030891;28;20775;-63
2023/03/21 02:49:24;;;;;;;18.97;10.00;;;9.70;74.30;;;;;;5030982;28;20490;-63
2023/03/21 02:51:51;;;;;;;19.23;9.90;;;9.70;75.30;;;;;;5031007;28;20430;-63
2023/03/21 02:54:23;;;;;;;19.05;10.65;;;9.50;93.00;;;;;;5041347;28;20415;-63
2023/03/21 02:56:51;;;;;;;19.48;10.90;;;9.50;95.50;;;;;;5046179;28;20447;-63
2023/03/21 02:59:21;;;;;;;17.15;11.30;;;9.60;96.80;;;;;;5039732;28;20419;-64
2023/03/21 03:01:49;;;;;;;20.92;11.32;;;9.50;99.90;;;;;;5040917;28;20413;-63
2023/03/21 03:04:21;;;;;;;22.40;11.48;;;9.40;99.90;;;;;;5041935;28;20475;-63
2023/03/21 03:07:11;;;;;;;19.42;11.13;;;9.60;99.90;;;;;;5040683;28;20473;-63
2023/03/21 03:09:51;;;;;;;20.90;11.13;;;9.60;99.90;;;;;;5041393;28;20421;-63
2023/03/21 03:12:27;;;;;;;18.45;10.55;;;9.50;99.90;;;;;;5030914;28;20460;-63
2023/03/21 03:15:03;;;;;;;20.80;10.83;;;10.10;99.90;;;;;;5040203;28;20465;-63
2023/03/21 03:17:41;;;;;;;23.55;11.57;;;9.60;99.90;;;;;;5039451;28;20754;-63
2023/03/21 03:20:20;;;;;;;21.52;11.90;;;9.30;99.90;;;;;;5039418;28;20419;-63
2023/03/21 03:22:54;;;;;;;20.98;11.65;;;9.40;99.90;;;;;;5040566;28;20743;-63
2023/03/21 03:25:28;;;;;;;20.90;11.47;;;9.40;99.90;;;;;;5046661;28;20501;-63
2023/03/21 03:27:56;;;;;;;23.30;12.10;;;9.30;99.90;;;;;;5042489;28;20831;-63
2023/03/21 03:30:26;;;;;;;19.90;11.50;;;9.30;99.90;;;;;;5040669;28;20414;-63
2023/03/21 03:32:57;;;;;;;21.50;12.32;;;9.30;99.90;;;;;;5038914;28;21016;-63
2023/03/21 03:35:25;;;;;;;20.88;11.95;;;9.00;99.90;;;;;;5040497;28;20422;-62
2023/03/21 03:37:56;;;;;;;24.48;11.93;;;9.10;99.90;;;;;;5041725;28;20417;-63
2023/03/21 03:40:28;;;;;;;27.40;11.65;;;9.20;99.90;;;;;;5038327;28;20419;-62
2023/03/21 03:43:00;;;;;;;19.52;11.05;;;9.10;99.90;;;;;;5039792;28;20410;-62
2023/03/21 03:45:30;;;;;;;20.17;11.32;;;9.10;99.90;;;;;;5040098;28;20415;-63
2023/03/21 03:48:05;;;;;;;21.70;11.88;;;9.10;99.90;;;;;;5039729;28;20971;-62
2023/03/21 03:50:38;;;;;;;19.50;11.88;;;9.10;99.90;;;;;;5039159;28;20439;-62
2023/03/21 03:53:08;;;;;;;23.55;11.90;;;9.10;99.90;;;;;;5043058;28;20543;-63
2023/03/21 03:55:37;;;;;;;22.02;11.60;;;9.10;99.90;;;;;;5050304;28;20411;-63
2023/03/21 03:58:04;;;;;;;21.35;10.63;;;9.00;99.90;;;;;;5043629;28;20418;-63
2023/03/21 04:00:33;;;;;;;18.42;11.18;;;9.10;99.90;;;;;;5045593;28;20409;-63
2023/03/21 04:03:00;;;;;;;20.77;10.82;;;9.20;99.90;;;;;;5043926;28;21114;-63
2023/03/21 04:05:27;;;;;;;18.95;10.68;;;9.10;99.90;;;;;;5042673;28;20410;-63
2023/03/21 04:07:53;;;;;;;19.15;11.05;;;9.10;99.90;;;;;;5047503;28;20479;-63
2023/03/21 04:10:21;;;;;;;21.30;10.73;;;9.00;99.90;;;;;;5044517;28;20413;-62
2023/03/21 04:12:49;;;;;;;24.70;11.20;;;9.10;99.90;;;;;;5042653;28;21124;-64
2023/03/21 04:15:18;;;;;;;17.43;10.53;;;9.10;99.90;;;;;;5043599;28;20502;-63
2023/03/21 04:17:45;;;;;;;20.40;11.18;;;9.00;99.90;;;;;;5045060;28;20421;-63
2023/03/21 04:20:12;;;;;;;22.17;11.13;;;9.10;99.90;;;;;;5043869;28;20411;-63
2023/03/21 04:22:39;;;;;;;21.03;10.83;;;9.00;99.90;;;;;;5042700;28;20474;-63
2023/03/21 04:25:07;;;;;;;20.50;11.45;;;9.00;99.90;;;;;;5053348;28;20417;-63
2023/03/21 04:27:34;;;;;;;21.42;10.98;;;8.90;99.90;;;;;;5045601;28;20432;-63
2023/03/21 04:30:02;;;;;;;22.00;11.65;;;8.90;99.90;;;;;;5042597;28;20828;-63
2023/03/21 04:32:32;;;;;;;23.70;11.75;;;8.90;99.90;;;;;;5043136;28;20427;-63
2023/03/21 04:34:59;;;;;;;23.67;12.27;;;8.90;99.90;;;;;;5044656;28;20413;-62
2023/03/21 04:37:26;;;;;;;21.23;11.65;;;8.90;99.90;;;;;;5043337;28;20437;-63
2023/03/21 04:39:54;;;;;;;21.38;11.48;;;8.90;99.90;;;;;;5045923;28;20421;-63
2023/03/21 04:42:20;;;;;;;22.60;11.35;;;8.90;99.90;;;;;;5043705;28;20468;-63
2023/03/21 04:44:48;;;;;;;22.63;11.57;;;8.90;99.90;;;;;;5042713;28;20422;-62
2023/03/21 04:47:19;;;;;;;24.58;11.43;;;9.00;99.90;;;;;;5044407;28;20475;-63
2023/03/21 04:49:46;;;;;;;22.33;11.60;;;9.10;99.90;;;;;;5044006;28;20413;-63
2023/03/21 04:52:13;;;;;;;19.10;11.23;;;9.00;99.90;;;;;;5041823;28;20789;-63
2023/03/21 04:54:40;;;;;;;21.05;10.70;;;8.90;99.90;;;;;;5051202;28;20420;-63
2023/03/21 04:57:06;;;;;;;24.90;11.00;;;9.00;99.90;;;;;;5041921;28;20415;-64
2023/03/21 04:59:33;;;;;;;22.58;11.52;;;9.00;99.90;;;;;;5044004;28;20505;-63
2023/03/21 05:02:00;;;;;;;20.52;11.57;;;9.10;99.90;;;;;;5044066;28;20413;-64
2023/03/21 05:04:29;;;;;;;22.33;11.05;;;9.00;99.90;;;;;;5042410;28;20447;-64
2023/03/21 05:06:56;;;;;;;19.25;11.25;;;9.10;99.90;;;;;;5050519;28;20483;-63
2023/03/21 05:09:23;;;;;;;19.00;11.10;;;9.10;99.90;;;;;;5045174;28;20431;-63
2023/03/21 05:11:50;;;;;;;20.83;10.82;;;9.10;99.90;;;;;;5043311;28;20421;-62
2023/03/21 05:14:19;;;;;;;20.98;10.48;;;9.10;99.90;;;;;;5044160;28;20414;-63
2023/03/21 05:16:51;;;;;;;20.52;10.57;;;9.20;99.90;;;;;;5042192;28;20406;-63
2023/03/21 05:19:19;;;;;;;20.73;10.30;;;9.20;99.90;;;;;;5041422;28;20885;-63
2023/03/21 05:21:47;;;;;;;21.60;10.27;;;9.20;99.90;;;;;;5044219;28;20444;-63
2023/03/21 05:24:16;;;;;;;18.65;9.73;;;9.30;99.90;;;;;;5046304;28;20450;-63
2023/03/21 05:26:49;;;;;;;18.50;10.07;;;9.50;99.90;;;;;;5054131;28;20417;-64
2023/03/21 05:29:17;;;;;;;17.40;9.50;;;9.40;99.90;;;;;;5044172;28;20433;-64
2023/03/21 05:31:44;;;;;;;16.92;9.70;;;9.60;99.90;;;;;;5041863;28;20491;-64
2023/03/21 05:34:10;;;;;;;17.88;9.80;;;9.50;98.10;;;;;;5041379;28;20450;-64
2023/03/21 05:36:37;;;;;;;18.38;9.85;;;9.30;97.80;;;;;;5044070;28;20424;-64
2023/03/21 05:39:06;;;;;;;17.65;9.32;;;9.20;99.90;;;;;;5042460;28;20422;-64
2023/03/21 05:41:33;;;;;;;18.52;9.32;;;9.40;99.90;;;;;;5041999;28;20473;-66
2023/03/21 05:44:00;;;;;;;21.73;10.07;;;9.50;99.90;;;;;;5052469;28;20429;-64
2023/03/21 05:46:27;;;;;;;16.50;9.07;;;9.30;99.90;;;;;;5046975;28;20854;-64
2023/03/21 05:48:54;;;;;;;16.55;9.15;;;9.40;99.90;;;;;;5040662;28;20434;-64
2023/03/21 05:51:20;;;;;;;15.13;8.80;;;9.50;99.90;;;;;;5043858;28;20411;-64
2023/03/21 05:53:48;;;;;;;19.25;8.73;;;9.50;93.30;;;;;;5048787;28;20421;-64
2023/03/21 05:56:16;;;;;;;16.40;8.57;;;9.50;92.60;;;;;;5050724;28;20504;-64
2023/03/21 05:58:42;;;;;;;16.35;8.82;;;9.40;96.20;;;;;;5042944;28;20413;-65
2023/03/21 06:01:09;;;;;;;16.40;9.20;;;9.40;99.90;;;;;;5040777;28;20445;-65
2023/03/21 06:03:36;;;;;;;17.97;8.80;;;9.40;99.90;;;;;;5041228;28;20504;-65
2023/03/21 06:06:03;;;;;;;15.90;9.13;;;9.40;99.90;;;;;;5042444;28;20423;-64
2023/03/21 06:08:30;;;;;;;16.67;8.70;;;9.50;99.90;;;;;;5039202;28;20478;-64
2023/03/21 06:10:57;;;;;;;15.48;8.23;;;9.60;99.90;;;;;;5042769;28;20417;-64
2023/03/21 06:13:25;;;;;;;17.67;8.23;;;9.60;99.90;;;;;;5040602;28;20468;-65
2023/03/21 06:15:51;;;;;;;17.05;8.68;;;9.70;99.90;;;;;;5040547;28;20828;-64
2023/03/21 06:18:18;;;;;;;14.93;8.30;;;9.60;99.90;;;;;;5042132;28;20883;-64
2023/03/21 06:20:45;;;;;;;16.70;9.73;;;9.60;99.90;;;;;;5041112;28;20808;-65
2023/03/21 06:23:11;;;;;;;18.55;8.57;;;9.60;99.90;;;;;;5043567;28;20487;-64
2023/03/21 06:25:38;;;;;;;19.48;8.85;;;9.60;99.90;;;;;;5053877;28;20478;-64
2023/03/21 06:28:05;;;;;;;18.33;9.30;;;9.60;99.90;;;;;;5040735;28;20427;-65
2023/03/21 06:30:33;;;;;;;19.75;8.95;;;9.60;99.90;;;;;;5042907;28;20459;-64
2023/03/21 06:33:00;;;;;;;16.80;8.48;;;9.50;99.90;;;;;;5048655;28;20461;-63
2023/03/21 06:35:26;;;;;;;22.05;8.80;;;9.60;99.90;;;;;;5053757;28;20411;-63
2023/03/21 06:37:53;;;;;;;17.50;8.93;;;9.50;99.90;;;;;;5047808;28;20423;-64
2023/03/21 06:40:20;;;;;;;18.52;8.32;;;9.50;99.90;;;;;;5040555;28;20415;-62
2023/03/21 06:42:46;;;;;;;17.85;9.23;;;9.40;99.90;;;;;;5039206;28;20419;-63
2023/03/21 06:45:13;;;;;;;18.50;8.83;;;9.40;99.90;;;;;;5040757;28;20405;-63
2023/03/21 06:47:41;;;;;;;17.45;8.85;;;9.60;99.90;;;;;;5041350;28;20415;-63
2023/03/21 06:50:09;;;;;;;16.98;8.55;;;9.60;99.90;;;;;;5044468;28;20427;-67
2023/03/21 06:52:36;;;;;;;14.35;8.63;;;9.70;99.90;;;;;;5046074;28;20423;-67
2023/03/21 06:55:03;;;;;;;16.30;7.90;;;9.50;99.90;;;;;;5050487;28;20466;-69
2023/03/21 06:57:29;;;;;;;16.30;7.97;;;9.50;99.90;;;;;;5049438;28;20426;-68
2023/03/21 06:59:56;;;;;;;14.88;8.63;;;9.50;99.90;;;;;;5050727;28;21095;-69
2023/03/21 07:02:23;;;;;;;14.77;7.77;;;9.30;99.90;;;;;;5040456;28;20427;-69
2023/03/21 07:04:51;;;;;;;15.55;7.10;;;9.50;99.90;;;;;;5039186;28;20418;-70
2023/03/21 07:07:18;;;;;;;15.65;7.07;;;9.50;99.90;;;;;;5030749;28;20888;-69
2023/03/21 07:09:44;;;;;;;13.80;7.40;;;9.60;99.90;;;;;;5027637;28;20909;-67
2023/03/21 07:12:11;;;;;;;16.52;7.18;;;9.60;99.90;;;;;;5048896;28;20491;-63
2023/03/21 07:14:38;;;;;;;14.05;6.80;;;9.60;99.90;;;;;;5050299;28;20423;-63
2023/03/21 07:17:04;;;;;;;15.20;7.18;;;9.60;99.90;;;;;;5050385;28;20425;-62
2023/03/21 07:19:31;;;;;;;17.48;7.22;;;9.60;99.90;;;;;;5050658;28;20422;-62
2023/03/21 07:22:00;;;;;;;13.75;7.22;;;9.50;99.90;;;;;;5044330;28;20958;-62
2023/03/21 07:24:27;;;;;;;14.38;7.20;;;9.50;99.90;;;;;;5046893;28;20426;-62
2023/03/21 07:26:55;;;;;;;14.88;7.45;;;9.40;99.90;;;;;;5063190;28;20462;-61
2023/03/21 07:29:22;;;;;;;16.02;7.93;;;9.40;99.90;;;;;;5052489;28;20779;-59
2023/03/21 07:31:48;;;;;;;16.30;8.43;;;9.30;99.90;;;;;;5049999;28;20498;-59
2023/03/21 07:34:16;;;;;;;15.32;7.72;;;9.40;99.90;;;;;;5059649;28;20416;-60
2023/03/21 07:36:43;;;;;;;17.23;7.25;;;9.40;99.90;;;;;;5047015;28;20424;-60
2023/03/21 07:39:11;;;;;;;14.80;7.40;;;9.40;99.90;;;;;;5042302;28;20413;-60
2023/03/21 07:41:38;;;;;;;17.25;7.72;;;9.40;99.90;;;;;;5045812;28;20967;-61
2023/03/21 07:44:05;;;;;;;16.35;7.40;;;9.50;99.90;;;;;;5051321;28;20413;-61
2023/03/21 07:46:31;;;;;;;16.70;7.32;;;9.50;99.90;;;;;;5049150;28;20912;-59
2023/03/21 07:48:58;;;;;;;17.10;7.47;;;9.50;99.90;;;;;;5048555;28;20428;-59
2023/03/21 07:51:25;;;;;;;15.70;7.00;;;9.60;99.90;;;;;;5047065;28;20417;-56
2023/03/21 07:53:51;;;;;;;17.40;7.93;;;9.70;99.90;;;;;;5057137;28;20881;-60
2023/03/21 07:56:20;;;;;;;15.85;7.20;;;9.60;99.90;;;;;;5067772;28;20412;-58
2023/03/21 07:58:47;;;;;;;14.70;7.18;;;9.70;99.90;;;;;;5045493;28;20781;-58
2023/03/21 08:01:14;;;;;;;13.73;7.20;;;9.70;99.90;;;;;;5048004;28;20439;-59
2023/03/21 08:03:42;;;;;;;13.52;7.63;;;9.80;99.90;;;;;;5047430;28;20418;-62
2023/03/21 08:06:09;;;;;;;15.40;7.33;;;9.90;99.90;;;;;;5047101;28;20448;-61
2023/03/21 08:08:36;;;;;;;16.20;6.88;;;10.00;99.90;;;;;;5046533;28;20790;-60
2023/03/21 08:11:04;;;;;;;15.20;7.30;;;9.90;99.90;;;;;;5044755;28;20465;-61
2023/03/21 08:13:32;;;;;;;17.33;7.75;;;10.00;99.90;;;;;;5048746;28;20430;-62
2023/03/21 08:15:59;;;;;;;16.98;7.90;;;9.90;99.90;;;;;;5042186;28;20508;-61
2023/03/21 08:18:25;;;;;;;14.35;7.55;;;9.80;99.90;;;;;;5047200;28;20414;-61
2023/03/21 08:20:53;;;;;;;17.85;8.00;;;9.80;99.90;;;;;;5048045;28;20453;-62
2023/03/21 08:23:20;;;;;;;13.93;7.65;;;9.80;99.90;;;;;;5048705;28;20909;-60
2023/03/21 08:25:50;;;;;;;14.48;7.07;;;9.80;99.90;;;;;;5060860;28;20425;-61
2023/03/21 08:28:17;;;;;;;15.95;7.50;;;10.00;99.90;;;;;;5048496;28;20440;-60
2023/03/21 08:30:45;;;;;;;16.40;7.28;;;10.00;99.90;;;;;;5046103;28;20421;-61
2023/03/21 08:33:12;;;;;;;15.53;7.73;;;10.00;99.90;;;;;;5044614;28;20455;-60
2023/03/21 08:35:39;;;;;;;17.60;7.75;;;10.10;99.90;;;;;;5052544;28;20501;-62
2023/03/21 08:38:06;;;;;;;13.88;7.28;;;10.10;99.90;;;;;;5045100;28;20494;-62
2023/03/21 08:40:34;;;;;;;15.23;7.15;;;10.20;99.90;;;;;;5046984;28;20409;-62
2023/03/21 08:43:00;;;;;;;16.40;7.00;;;10.20;99.90;;;;;;5043246;28;20419;-61
2023/03/21 08:45:27;;;;;;;16.38;7.35;;;10.20;99.90;;;;;;5041371;28;20411;-61
2023/03/21 08:47:55;;;;;;;14.98;7.78;;;10.30;99.90;;;;;;5046197;28;20469;-61
2023/03/21 08:50:25;;;;;;;13.50;7.13;;;10.40;99.90;;;;;;5041815;28;20427;-59
2023/03/21 08:52:52;;;;;;;15.77;7.30;;;10.40;99.90;;;;;;5044114;28;20543;-58
2023/03/21 08:55:19;;;;;;;13.02;7.40;;;10.40;99.90;;;;;;5052093;28;20429;-60
2023/03/21 08:57:46;;;;;;;14.52;7.72;;;10.50;99.90;;;;;;5045452;28;20741;-61
2023/03/21 09:00:17;;;;;;;14.65;7.55;;;10.50;99.90;;;;;;5041448;28;20468;-61
2023/03/21 09:02:45;;;;;;;13.63;7.90;;;10.50;99.90;;;;;;5041287;28;20459;-61
2023/03/21 09:05:14;;;;;;;16.98;8.25;;;10.60;99.90;;;;;;5042326;28;20503;-59
2023/03/21 09:07:42;;;;;;;17.60;8.40;;;10.60;99.90;;;;;;5043320;28;21054;-63
2023/03/21 09:10:11;;;;;;;16.13;7.95;;;10.50;99.90;;;;;;5044081;28;20462;-63
2023/03/21 09:12:38;;;;;;;15.55;8.65;;;10.30;99.90;;;;;;5045660;28;20429;-62
2023/03/21 09:15:06;;;;;;;14.48;8.25;;;10.30;99.90;;;;;;5043380;28;20440;-62
2023/03/21 09:17:33;;;;;;;15.93;8.13;;;10.20;99.90;;;;;;5039159;28;20434;-62
2023/03/21 09:20:09;;;;;;;14.90;8.13;;;10.30;99.90;;;;;;5040520;28;20411;-63
2023/03/21 09:22:38;;;;;;;14.70;8.02;;;10.20;99.90;;;;;;5047829;28;20888;-63
2023/03/21 09:25:07;;;;;;;13.30;7.95;;;10.40;99.90;;;;;;5051090;28;20906;-59
2023/03/21 09:27:33;;;;;;;13.20;8.20;;;10.40;99.90;;;;;;5045830;28;20491;-59
2023/03/21 09:30:00;;;;;;;15.52;8.05;;;10.30;99.90;;;;;;5041972;28;20957;-62
2023/03/21 09:32:28;;;;;;;15.20;7.85;;;10.50;99.90;;;;;;5044710;28;20420;-63
2023/03/21 09:34:56;;;;;;;15.05;7.63;;;10.50;99.90;;;;;;5056802;28;20483;-60
2023/03/21 09:37:23;;;;;;;14.85;8.05;;;10.30;99.90;;;;;;5042955;28;20420;-61
2023/03/21 09:39:51;;;;;;;14.30;7.55;;;10.20;99.90;;;;;;5044314;28;20512;-61
2023/03/21 09:42:29;;;;;;;14.32;7.68;;;10.30;99.90;;;;;;5031771;28;20805;-63
2023/03/21 09:45:06;;;;;;;12.93;7.57;;;10.50;99.90;;;;;;5046709;28;20424;-61
2023/03/21 09:47:44;;;;;;;14.55;6.53;;;10.40;99.90;;;;;;5043022;28;20427;-63
2023/03/21 09:50:15;;;;;;;12.45;7.43;;;10.30;99.90;;;;;;5041920;28;20431;-61
2023/03/21 09:52:46;;;;;;;13.75;7.22;;;10.40;99.90;;;;;;5050836;28;20474;-58
2023/03/21 09:55:18;;;;;;;12.60;7.23;;;10.50;99.90;;;;;;5044881;28;20507;-60
2023/03/21 09:57:48;;;;;;;12.98;6.40;;;10.60;99.90;;;;;;5040558;28;20828;-59
2023/03/21 10:00:23;;;;;;;12.00;6.28;;;10.90;99.90;;;;;;5040478;28;20411;-60
2023/03/21 10:02:52;;;;;;;13.77;6.40;;;10.60;99.90;;;;;;5043622;28;20417;-60
2023/03/21 10:05:21;;;;;;;13.13;6.32;;;10.70;99.90;;;;;;5040011;28;20419;-60
2023/03/21 10:07:54;;;;;;;10.88;5.63;;;10.80;99.90;;;;;;5040558;28;20492;-60
2023/03/21 10:10:27;;;;;;;10.32;5.45;;;10.80;99.90;;;;;;5042514;28;20521;-60
2023/03/21 10:12:55;;;;;;;11.02;5.63;;;10.70;99.90;;;;;;5045648;28;20791;-60
2023/03/21 10:15:24;;;;;;;11.87;6.10;;;10.60;99.90;;;;;;5041871;28;20419;-59
2023/03/21 10:17:58;;;;;;;11.97;6.07;;;10.70;99.90;;;;;;5040496;28;20472;-59
2023/03/21 10:20:26;;;;;;;9.75;5.35;;;10.60;99.90;;;;;;5046901;28;20515;-64
2023/03/21 10:22:56;;;;;;;10.15;5.32;;;10.80;99.90;;;;;;5051508;28;20469;-64
2023/03/21 10:25:30;;;;;;;10.82;5.25;;;10.90;99.90;;;;;;5052424;28;20431;-62
2023/03/21 10:27:57;;;;;;;8.98;4.82;;;10.90;99.90;;;;;;5057691;28;20420;-62
2023/03/21 10:30:38;;;;;;;10.45;4.35;;;11.00;99.90;;;;;;5044885;28;20503;-63
2023/03/21 10:33:09;;;;;;;9.25;4.65;;;11.00;99.90;;;;;;5045044;28;20451;-59
2023/03/21 10:35:38;;;;;;;8.98;4.40;;;10.80;99.90;;;;;;5045203;28;20849;-61
2023/03/21 10:38:06;;;;;;;8.70;4.60;;;10.90;99.90;;;;;;5040848;28;20424;-60
2023/03/21 10:40:34;;;;;;;9.68;4.03;;;10.80;99.90;;;;;;5041365;28;20415;-60
2023/03/21 10:43:17;;;;;;;8.82;4.03;;;10.90;99.90;;;;;;5031193;28;20751;-62
2023/03/21 10:45:46;;;;;;;10.02;4.22;;;11.10;99.90;;;;;;5033337;28;20411;-62
2023/03/21 10:48:13;;;;;;;9.05;3.95;;;11.00;99.90;;;;;;5053316;28;20413;-62
2023/03/21 10:50:40;;;;;;;8.27;4.10;;;11.10;99.90;;;;;;5050925;28;20427;-63
2023/03/21 10:53:17;;;;;;;8.35;3.80;;;11.00;99.90;;;;;;5049482;28;20444;-61
2023/03/21 10:55:47;;;;;;;9.75;4.07;;;11.10;99.90;;;;;;5049548;28;20412;-62
2023/03/21 10:58:17;;;;;;;7.72;3.97;;;11.10;99.90;;;;;;5040008;28;20767;-61
2023/03/21 11:00:46;;;;;;;10.48;4.28;;;11.20;99.90;;;;;;5034938;28;20488;-61
2023/03/21 11:03:21;;;;;;;7.53;3.75;;;11.20;99.90;;;;;;5038213;28;20492;-61
2023/03/21 11:05:48;;;;;;;8.27;4.18;;;11.10;99.90;;;;;;5041881;28;20497;-59
2023/03/21 11:08:18;;;;;;;8.30;4.13;;;11.30;99.90;;;;;;5038485;28;20418;-61
2023/03/21 11:10:59;;;;;;;11.02;4.63;;;11.30;99.90;;;;;;5039978;28;20981;-62
2023/03/21 11:13:27;;;;;;;8.80;3.97;;;11.30;99.90;;;;;;5048252;28;20449;-60
2023/03/21 11:15:57;;;;;;;11.20;4.27;;;11.30;99.90;;;;;;5048242;28;20417;-61
2023/03/21 11:18:25;;;;;;;8.88;4.10;;;11.50;99.90;;;;;;5039499;28;20446;-58
2023/03/21 11:20:54;;;;;;;9.85;4.43;;;11.30;99.90;;;;;;5039682;28;20807;-64
2023/03/21 11:23:21;;;;;;;10.45;4.20;;;11.20;99.90;;;;;;5052904;28;20895;-60
2023/03/21 11:25:51;;;;;;;9.82;4.28;;;11.20;99.90;;;;;;5045355;28;20479;-63
2023/03/21 11:28:21;;;;;;;10.35;4.47;;;11.20;99.90;;;;;;5039217;28;20900;-66
2023/03/21 11:30:54;;;;;;;9.85;4.65;;;11.10;99.90;;;;;;5038964;28;20459;-66
2023/03/21 11:33:23;;;;;;;9.98;4.25;;;11.30;99.90;;;;;;5042244;28;20419;-69
2023/03/21 11:36:00;;;;;;;10.37;4.67;;;11.40;99.90;;;;;;5044912;28;20413;-68
2023/03/21 11:38:31;;;;;;;9.82;4.47;;;11.70;99.90;;;;;;5040740;28;20426;-66
2023/03/21 11:41:01;;;;;;;8.65;4.15;;;11.70;99.90;;;;;;5045136;28;20880;-67
2023/03/21 11:43:31;;;;;;;9.05;3.65;;;11.90;99.80;;;;;;5044758;28;20420;-66
2023/03/21 11:46:00;;;;;;;10.00;5.10;;;11.90;99.90;;;;;;5041813;28;20828;-66
2023/03/21 11:48:26;;;;;;;7.70;3.63;;;11.90;99.90;;;;;;5044585;28;20427;-66
2023/03/21 11:51:02;;;;;;;8.20;3.60;;;12.10;96.80;;;;;;5041266;28;20522;-67
2023/03/21 11:53:38;;;;;;;7.03;3.40;;;12.10;84.50;;;;;;5049075;28;20417;-68
2023/03/21 11:56:18;;;;;;;7.75;3.20;;;12.00;89.10;;;;;;5044241;28;20509;-68
2023/03/21 11:59:07;;;;;;;10.80;3.60;;;11.90;63.40;;;;;;5048650;28;20416;-68
2023/03/21 12:01:41;;;;;;;7.53;3.17;;;12.00;90.00;;;;;;5029236;28;20955;-68
2023/03/21 12:04:20;;;;;;;7.80;3.33;;;12.00;61.30;;;;;;5038210;28;20411;-65
2023/03/21 12:06:53;;;;;;;6.78;3.28;;;12.40;74.60;;;;;;5038209;28;20414;-66
2023/03/21 12:09:37;;;;;;;8.77;3.40;;;12.60;60.70;;;;;;5038630;28;20450;-66
2023/03/21 12:12:21;;;;;;;12.35;3.47;;;12.90;16.90;;;;;;5029509;28;20489;-66
2023/03/21 12:14:58;;;;;;;9.57;3.13;;;12.80;2.70;;;;;;5045849;28;20421;-66
2023/03/21 12:17:35;;;;;;;7.97;3.00;;;12.80;1.00;;;;;;5031259;28;20425;-66
2023/03/21 12:20:13;;;;;;;4.57;2.95;;;12.90;1.00;;;;;;5042163;28;20411;-66
2023/03/21 12:22:50;;;;;;;4.83;2.73;;;12.70;1.00;;;;;;5042110;28;20407;-70
2023/03/21 12:25:20;;;;;;;8.00;3.33;;;12.50;1.00;;;;;;5046658;28;20414;-66
2023/03/21 12:28:00;;;;;;;7.63;2.92;;;12.50;20.60;;;;;;5048402;28;20417;-65
2023/03/21 12:30:36;;;;;;;7.47;2.90;;;12.30;3.10;;;;;;5042619;28;20480;-68
2023/03/21 12:33:19;;;;;;;4.53;2.80;;;12.30;7.20;;;;;;5040605;28;20474;-68
2023/03/21 12:35:54;;;;;;;6.45;3.10;;;12.20;1.00;;;;;;5044213;28;20487;-70
2023/03/21 12:38:25;;;;;;;6.85;3.00;;;12.10;1.00;;;;;;5043838;28;20814;-69
2023/03/21 12:41:20;;;;;;;6.20;2.85;;;12.00;1.00;;;;;;5042837;28;20422;-66
2023/03/21 12:43:55;;;;;;;4.65;2.60;;;12.20;6.50;;;;;;5032717;28;20476;-67
2023/03/21 12:46:27;;;;;;;6.28;2.67;;;12.40;1.00;;;;;;5042642;28;20789;-63
2023/03/21 12:48:58;;;;;;;7.53;2.70;;;11.80;1.00;;;;;;5049395;28;20475;-63
2023/03/21 12:51:31;;;;;;;7.87;2.97;;;12.30;1.00;;;;;;5049164;28;20437;-62
2023/03/21 12:54:03;;;;;;;5.82;3.05;;;12.20;1.00;;;;;;5042926;28;20936;-64
2023/03/21 12:56:35;;;;;;;7.60;3.15;;;11.90;1.00;;;;;;5043917;28;20423;-66